Portada
METAR-TAF:

METAR-TAF

Aeropuertos :

Aeropuerto de Comiso

Comiso, Italia

latitud: 36-59-30N, longitud: 14-36-25E, altitud: 190 m

Observación

El informe se hizo hace 1 hora y 15 minutos, a las 01:50 UTC
Viento 3 kt del noreste, variando entre norte y este
Temperatura 14°C
Humedad 82%
Presión 1014 hPa
Visibilidad 10 km o más

METAR: LICB 010150Z AUTO 04003KT 010V090 9999 NCD 14/11 Q1014

Hora: 05:05 (03:05 UTC)

Pronóstico

El informe se hizo hace 7 horas y 5 minutos, a las 20:00 UTC
Pronóstico válido del 31 a las 21 UTC al 01 a las 06 UTC
Viento 6 kt con dirección variable
Visibilidad 10 km o más
Nubes dispersas a una altura de 3000 ft

TAF: LICB 312000Z 3121/0106 VRB06KT 9999 SCT030

Observaciones y pronósticos meteorológicos de más de 4000 aeropuertos (mensajes METAR y TAF).

Los puntos amarillos y rojos representan las estaciones disponibles.

Ponga el ratón en el punto deseado para ver el nombre de la estación.

Haga clic para ver las observaciones y los pronósticos meteorológicos.

Para cambiar el mapa : haga clic en los botones verdes con una cruz de color negro para hacer un zoom, en el botón verde con un guión para alejar o en las flechas verdes para mapas adyacentes.


METAR-TAF: